Time,TemperatureF,DewpointF,PressureIn,WindDirection,WindDirectionDegrees,WindSpeedMPH,WindSpeedGustMPH,Humidity,HourlyPrecipIn,Conditions,Clouds,dailyrainin,SolarRadiationWatts/m^2,SoftwareType,DateUTC
2013-06-16 00:00:00,63.0,60.0,30.00,North,5,0.0,0.0,90,0.00,,---,0.01,0.00,VWS V14.00,2013-06-16 04:00:00,
2013-06-16 00:01:00,63.0,60.0,30.00,North,5,0.0,0.0,90,0.00,,---,0.01,0.00,VWS V14.00,2013-06-16 04:01:00,
2013-06-16 00:06:00,63.0,60.0,30.00,North,5,0.0,0.0,90,0.00,,---,0.00,0.00,VWS V14.00,2013-06-16 04:06:00,
2013-06-16 00:11:00,62.9,60.2,30.00,North,5,0.0,0.0,91,0.00,,---,0.00,0.00,VWS V14.00,2013-06-16 04:11:00,
2013-06-16 00:16:00,62.8,60.1,29.99,North,5,0.0,0.0,91,0.00,,---,0.00,0.00,VWS V14.00,2013-06-16 04:16:00,
2013-06-16 00:21:00,62.8,60.1,29.99,North,5,0.0,0.0,91,0.00,,---,0.00,0.00,VWS V14.00,2013-06-16 04:21:00,
2013-06-16 00:26:00,62.7,60.0,29.99,North,5,0.0,0.0,91,0.00,,---,0.00,0.00,VWS V14.00,2013-06-16 04:26:00,
2013-06-16 00:30:00,63.3,60.0,30.00,North,5,0.0,0.0,89,0.00,,---,0.01,0.00,VWS V14.00,2013-06-16 04:30:00,
2013-06-16 00:31:00,62.7,60.0,29.98,North,5,0.0,0.0,91,0.00,,---,0.00,0.00,VWS V14.00,2013-06-16 04:31:00,
2013-06-16 00:36:00,62.6,60.2,29.98,North,5,0.0,0.0,92,0.00,,---,0.00,0.00,VWS V14.00,2013-06-16 04:36:00,
2013-06-16 00:41:00,62.6,60.2,29.98,North,5,0.0,0.0,92,0.00,,---,0.00,0.00,VWS V14.00,2013-06-16 04:41:00,
2013-06-16 00:46:00,62.6,60.2,29.98,North,5,0.0,0.0,92,0.00,,---,0.00,0.00,VWS V14.00,2013-06-16 04:46:00,
2013-06-16 00:51:00,62.5,60.2,29.98,North,5,0.0,0.0,92,0.00,,---,0.00,0.00,VWS V14.00,2013-06-16 04:51:00,
2013-06-16 00:56:00,62.5,60.5,29.98,North,5,0.0,0.0,93,0.00,,---,0.00,0.00,VWS V14.00,2013-06-16 04:56:00,
2013-06-16 01:00:00,63.0,60.0,30.00,North,5,0.0,0.0,90,0.00,,---,0.00,0.00,VWS V14.00,2013-06-16 05:00:00,
2013-06-16 01:01:00,62.5,60.5,29.98,North,5,0.0,0.0,93,0.00,,---,0.00,0.00,VWS V14.00,2013-06-16 05:01:00,
2013-06-16 01:06:00,62.4,60.7,29.98,North,5,0.0,0.0,94,0.00,,---,0.00,0.00,VWS V14.00,2013-06-16 05:06:00,
2013-06-16 01:11:00,62.4,60.7,29.98,North,5,0.0,0.0,94,0.00,,---,0.00,0.00,VWS V14.00,2013-06-16 05:11:00,
2013-06-16 01:16:00,62.4,60.7,29.98,North,5,1.0,1.0,94,0.00,,---,0.00,0.00,VWS V14.00,2013-06-16 05:16:00,
2013-06-16 01:21:00,62.3,60.6,29.98,North,360,2.0,2.0,94,0.00,,---,0.00,0.00,VWS V14.00,2013-06-16 05:21:00,
2013-06-16 01:26:00,62.2,60.5,29.98,North,355,1.0,5.0,94,0.00,,---,0.00,0.00,VWS V14.00,2013-06-16 05:26:00,
2013-06-16 01:30:00,62.7,60.0,29.98,North,5,0.0,0.0,91,0.00,,---,0.00,0.00,VWS V14.00,2013-06-16 05:30:00,
2013-06-16 01:31:00,62.2,60.2,29.98,NNE,30,0.0,0.0,93,0.00,,---,0.00,0.00,VWS V14.00,2013-06-16 05:31:00,
2013-06-16 01:36:00,62.2,60.2,29.98,NNE,30,0.0,0.0,93,0.00,,---,0.00,0.00,VWS V14.00,2013-06-16 05:36:00,
2013-06-16 01:41:00,62.3,60.6,29.98,NNE,30,0.0,0.0,94,0.00,,---,0.00,0.00,VWS V14.00,2013-06-16 05:41:00,
2013-06-16 01:46:00,62.3,60.6,29.98,NNE,30,0.0,0.0,94,0.00,,---,0.00,0.00,VWS V14.00,2013-06-16 05:46:00,
2013-06-16 01:51:00,62.3,60.6,29.98,NNE,30,0.0,0.0,94,0.00,,---,0.00,0.00,VWS V14.00,2013-06-16 05:51:00,
2013-06-16 01:56:00,62.3,60.6,29.98,NNE,30,0.0,0.0,94,0.00,,---,0.00,0.00,VWS V14.00,2013-06-16 05:56:00,
2013-06-16 02:00:00,62.5,60.5,29.98,North,5,0.0,0.0,93,0.00,,---,0.00,0.00,VWS V14.00,2013-06-16 06:00:00,
2013-06-16 02:01:00,62.2,60.5,29.97,NNE,30,0.0,0.0,94,0.00,,---,0.00,0.00,VWS V14.00,2013-06-16 06:01:00,
2013-06-16 02:06:00,62.2,60.5,29.97,NNE,30,0.0,0.0,94,0.00,,---,0.00,0.00,VWS V14.00,2013-06-16 06:06:00,
2013-06-16 02:11:00,62.1,60.4,29.96,NNE,30,0.0,0.0,94,0.00,,---,0.00,0.00,VWS V14.00,2013-06-16 06:11:00,
2013-06-16 02:16:00,62.1,60.4,29.96,NNE,30,0.0,0.0,94,0.00,,---,0.00,0.00,VWS V14.00,2013-06-16 06:16:00,
2013-06-16 02:21:00,62.1,60.4,29.96,NNE,30,0.0,0.0,94,0.00,,---,0.00,0.00,VWS V14.00,2013-06-16 06:21:00,
2013-06-16 02:26:00,62.1,60.4,29.96,NNE,30,0.0,2.0,94,0.00,,---,0.00,0.00,VWS V14.00,2013-06-16 06:26:00,
2013-06-16 02:30:00,62.2,60.2,29.98,NNE,30,0.0,5.0,93,0.00,,---,0.00,0.00,VWS V14.00,2013-06-16 06:30:00,
2013-06-16 02:31:00,62.1,60.4,29.96,NNE,30,0.0,2.0,94,0.00,,---,0.00,0.00,VWS V14.00,2013-06-16 06:31:00,
2013-06-16 02:36:00,62.1,60.4,29.95,NNE,30,0.0,0.0,94,0.00,,---,0.00,0.00,VWS V14.00,2013-06-16 06:36:00,
2013-06-16 02:41:00,62.1,60.4,29.95,NNE,30,0.0,0.0,94,0.00,,---,0.00,0.00,VWS V14.00,2013-06-16 06:41:00,
2013-06-16 02:46:00,62.2,60.5,29.95,NNE,30,0.0,1.0,94,0.00,,---,0.00,0.00,VWS V14.00,2013-06-16 06:46:00,
2013-06-16 02:51:00,62.1,60.4,29.95,NNE,30,0.0,1.0,94,0.00,,---,0.00,0.00,VWS V14.00,2013-06-16 06:51:00,
2013-06-16 02:56:00,62.2,60.5,29.95,NNE,30,0.0,1.0,94,0.00,,---,0.00,0.00,VWS V14.00,2013-06-16 06:56:00,
2013-06-16 03:00:00,62.2,60.5,29.97,NNE,30,0.0,0.0,94,0.00,,---,0.00,0.00,VWS V14.00,2013-06-16 07:00:00,
2013-06-16 03:01:00,62.2,60.2,29.95,NNE,30,0.0,1.0,93,0.00,,---,0.00,0.00,VWS V14.00,2013-06-16 07:01:00,
2013-06-16 03:06:00,62.1,60.1,29.95,NNE,30,0.0,0.0,93,0.00,,---,0.00,0.00,VWS V14.00,2013-06-16 07:06:00,
2013-06-16 03:11:00,62.1,60.1,29.95,NNE,30,0.0,0.0,93,0.00,,---,0.00,0.00,VWS V14.00,2013-06-16 07:11:00,
2013-06-16 03:16:00,62.1,60.1,29.95,NNE,30,0.0,0.0,93,0.00,,---,0.00,0.00,VWS V14.00,2013-06-16 07:16:00,
2013-06-16 03:21:00,62.1,60.1,29.95,NNE,30,0.0,0.0,93,0.00,,---,0.00,0.00,VWS V14.00,2013-06-16 07:21:00,
2013-06-16 03:26:00,62.2,60.5,29.95,NNE,30,0.0,0.0,94,0.00,,---,0.00,0.00,VWS V14.00,2013-06-16 07:26:00,
2013-06-16 03:30:00,62.1,60.4,29.96,NNE,30,0.0,2.0,94,0.00,,---,0.00,0.00,VWS V14.00,2013-06-16 07:30:00,
2013-06-16 03:31:00,62.2,60.5,29.94,NNE,30,0.0,0.0,94,0.00,,---,0.00,0.00,VWS V14.00,2013-06-16 07:31:00,
2013-06-16 03:36:00,62.2,60.5,29.94,NNE,30,0.0,0.0,94,0.00,,---,0.00,0.00,VWS V14.00,2013-06-16 07:36:00,
2013-06-16 03:41:00,62.1,60.4,29.94,NNE,30,0.0,0.0,94,0.00,,---,0.00,0.00,VWS V14.00,2013-06-16 07:41:00,
2013-06-16 03:46:00,62.1,60.4,29.94,NNE,30,0.0,0.0,94,0.00,,---,0.00,0.00,VWS V14.00,2013-06-16 07:46:00,
2013-06-16 03:51:00,62.0,60.3,29.94,NNE,30,0.0,0.0,94,0.00,,---,0.00,0.00,VWS V14.00,2013-06-16 07:51:00,
2013-06-16 03:56:00,62.0,60.3,29.93,NNE,30,0.0,0.0,94,0.00,,---,0.00,0.00,VWS V14.00,2013-06-16 07:56:00,
2013-06-16 04:00:00,62.2,60.2,29.95,NNE,30,0.0,1.0,93,0.00,,---,0.00,0.00,VWS V14.00,2013-06-16 08:00:00,
2013-06-16 04:01:00,62.0,60.6,29.93,NNE,30,0.0,0.0,95,0.00,,---,0.00,0.00,VWS V14.00,2013-06-16 08:01:00,
2013-06-16 04:06:00,61.9,60.5,29.93,NNE,30,0.0,0.0,95,0.00,,---,0.00,0.00,VWS V14.00,2013-06-16 08:06:00,
2013-06-16 04:11:00,61.9,60.5,29.93,NNE,30,0.0,0.0,95,0.00,,---,0.00,0.00,VWS V14.00,2013-06-16 08:11:00,
2013-06-16 04:16:00,61.9,60.2,29.93,NNE,30,0.0,0.0,94,0.00,,---,0.00,0.00,VWS V14.00,2013-06-16 08:16:00,
2013-06-16 04:21:00,62.0,60.6,29.93,NNE,30,0.0,0.0,95,0.00,,---,0.00,0.00,VWS V14.00,2013-06-16 08:21:00,
2013-06-16 04:26:00,62.1,60.4,29.93,NNE,30,0.0,0.0,94,0.00,,---,0.00,0.00,VWS V14.00,2013-06-16 08:26:00,
2013-06-16 04:30:00,62.2,60.5,29.94,NNE,30,0.0,0.0,94,0.00,,---,0.00,0.00,VWS V14.00,2013-06-16 08:30:00,
2013-06-16 04:31:00,62.2,60.5,29.94,NNE,28,0.0,1.0,94,0.00,,---,0.00,0.00,VWS V14.00,2013-06-16 08:31:00,
2013-06-16 04:36:00,62.4,60.3,29.94,NNE,28,0.0,0.0,93,0.00,,---,0.00,0.00,VWS V14.00,2013-06-16 08:36:00,
2013-06-16 04:41:00,62.5,60.5,29.93,NNE,28,0.0,0.0,93,0.00,,---,0.00,0.00,VWS V14.00,2013-06-16 08:41:00,
2013-06-16 04:46:00,62.6,60.8,29.94,NNE,28,0.0,0.0,94,0.00,,---,0.01,0.00,VWS V14.00,2013-06-16 08:46:00,
2013-06-16 04:51:00,62.5,60.8,29.94,NNE,28,0.0,1.0,94,0.00,,---,0.01,0.00,VWS V14.00,2013-06-16 08:51:00,
2013-06-16 04:56:00,62.5,60.8,29.94,NNE,28,0.0,1.0,94,0.00,,---,0.01,0.00,VWS V14.00,2013-06-16 08:56:00,
2013-06-16 05:00:00,62.0,60.6,29.93,NNE,30,0.0,0.0,95,0.00,,---,0.00,0.00,VWS V14.00,2013-06-16 09:00:00,
2013-06-16 05:01:00,62.5,60.5,29.94,NNE,28,0.0,1.0,93,0.00,,---,0.01,0.00,VWS V14.00,2013-06-16 09:01:00,
2013-06-16 05:06:00,62.5,60.8,29.94,NNE,28,0.0,3.0,94,0.00,,---,0.01,0.00,VWS V14.00,2013-06-16 09:06:00,
2013-06-16 05:11:00,62.5,60.8,29.94,NNE,28,0.0,3.0,94,0.00,,---,0.01,0.00,VWS V14.00,2013-06-16 09:11:00,
2013-06-16 05:16:00,62.6,60.8,29.94,NNE,28,0.0,3.0,94,0.00,,---,0.01,0.00,VWS V14.00,2013-06-16 09:16:00,
2013-06-16 05:21:00,62.6,60.8,29.94,NNE,28,0.0,3.0,94,0.00,,---,0.01,0.00,VWS V14.00,2013-06-16 09:21:00,
2013-06-16 05:26:00,62.6,60.8,29.94,NNE,28,0.0,3.0,94,0.00,,---,0.01,0.00,VWS V14.00,2013-06-16 09:26:00,
2013-06-16 05:30:00,62.2,60.5,29.94,NNE,28,0.0,1.0,94,0.00,,---,0.00,0.00,VWS V14.00,2013-06-16 09:30:00,
2013-06-16 05:31:00,62.6,60.8,29.93,NNE,28,0.0,3.0,94,0.00,,---,0.01,0.00,VWS V14.00,2013-06-16 09:31:00,
2013-06-16 05:36:00,62.6,61.2,29.93,NNE,28,0.0,0.0,95,0.00,,---,0.01,0.00,VWS V14.00,2013-06-16 09:36:00,
2013-06-16 05:41:00,62.5,61.0,29.93,NNE,28,0.0,0.0,95,0.00,,---,0.01,0.00,VWS V14.00,2013-06-16 09:41:00,
2013-06-16 05:46:00,62.5,61.0,29.93,NNE,28,0.0,1.0,95,0.00,,---,0.01,0.00,VWS V14.00,2013-06-16 09:46:00,
2013-06-16 05:51:00,62.4,61.0,29.93,NNE,28,0.0,1.0,95,0.00,,---,0.01,0.00,VWS V14.00,2013-06-16 09:51:00,
2013-06-16 05:56:00,62.4,61.0,29.93,NNE,28,0.0,1.0,95,0.00,,---,0.01,0.00,VWS V14.00,2013-06-16 09:56:00,
2013-06-16 06:00:00,62.5,60.5,29.94,NNE,28,0.0,1.0,93,0.00,,---,0.01,0.00,VWS V14.00,2013-06-16 10:00:00,
2013-06-16 06:01:00,62.4,61.0,29.93,NNE,28,0.0,1.0,95,0.00,,---,0.01,0.00,VWS V14.00,2013-06-16 10:01:00,
2013-06-16 06:06:00,62.5,61.0,29.93,NNE,28,0.0,0.0,95,0.00,,---,0.01,0.00,VWS V14.00,2013-06-16 10:06:00,
2013-06-16 06:11:00,62.6,60.8,29.92,ESE,103,0.0,4.0,94,0.00,,---,0.01,0.00,VWS V14.00,2013-06-16 10:11:00,
2013-06-16 06:16:00,62.8,61.0,29.92,SE,127,0.0,4.0,94,0.00,,---,0.01,0.00,VWS V14.00,2013-06-16 10:16:00,
2013-06-16 06:21:00,62.9,61.2,29.92,SE,127,0.0,4.0,94,0.00,,---,0.01,7.00,VWS V14.00,2013-06-16 10:21:00,
2013-06-16 06:26:00,63.0,61.2,29.92,SE,127,0.0,4.0,94,0.00,,---,0.01,7.00,VWS V14.00,2013-06-16 10:26:00,
2013-06-16 06:30:00,62.6,60.8,29.93,NNE,28,0.0,3.0,94,0.00,,---,0.01,0.00,VWS V14.00,2013-06-16 10:30:00,
2013-06-16 06:31:00,63.1,61.0,29.92,SE,127,0.0,4.0,93,0.00,,---,0.01,11.00,VWS V14.00,2013-06-16 10:31:00,
2013-06-16 06:36:00,63.1,61.0,29.92,SE,126,0.0,0.0,93,0.00,,---,0.01,16.00,VWS V14.00,2013-06-16 10:36:00,
2013-06-16 06:41:00,63.2,61.2,29.92,SE,127,0.0,0.0,93,0.00,,---,0.01,18.00,VWS V14.00,2013-06-16 10:41:00,
2013-06-16 06:46:00,63.3,61.2,29.92,SE,126,0.0,0.0,93,0.00,,---,0.01,18.00,VWS V14.00,2013-06-16 10:46:00,
2013-06-16 06:51:00,63.4,61.3,29.92,ENE,76,0.0,0.0,93,0.00,,---,0.01,23.00,VWS V14.00,2013-06-16 10:51:00,
2013-06-16 06:56:00,63.4,61.3,29.92,ENE,57,0.0,0.0,93,0.00,,---,0.01,42.00,VWS V14.00,2013-06-16 10:56:00,
2013-06-16 07:00:00,62.4,61.0,29.93,NNE,28,0.0,1.0,95,0.00,,---,0.01,0.00,VWS V14.00,2013-06-16 11:00:00,
2013-06-16 07:01:00,63.5,61.4,29.91,ENE,57,0.0,0.0,93,0.00,,---,0.01,46.00,VWS V14.00,2013-06-16 11:01:00,
2013-06-16 07:06:00,63.6,61.5,29.92,ENE,57,0.0,2.0,93,0.00,,---,0.01,42.00,VWS V14.00,2013-06-16 11:06:00,
2013-06-16 07:11:00,63.7,61.6,29.91,South,175,0.0,4.0,93,0.00,,---,0.01,42.00,VWS V14.00,2013-06-16 11:11:00,
2013-06-16 07:16:00,63.8,61.4,29.91,WNW,290,2.0,5.0,92,0.00,,---,0.01,35.00,VWS V14.00,2013-06-16 11:16:00,
2013-06-16 07:21:00,63.8,61.1,29.91,SW,231,0.0,5.0,91,0.00,,---,0.01,35.00,VWS V14.00,2013-06-16 11:21:00,
2013-06-16 07:26:00,63.9,61.2,29.91,WSW,248,0.0,5.0,91,0.00,,---,0.01,47.00,VWS V14.00,2013-06-16 11:26:00,
2013-06-16 07:30:00,63.1,61.0,29.92,SE,127,0.0,4.0,93,0.00,,---,0.01,11.00,VWS V14.00,2013-06-16 11:30:00,
2013-06-16 07:31:00,63.9,60.9,29.91,WSW,242,0.0,0.0,90,0.00,,---,0.01,49.00,VWS V14.00,2013-06-16 11:31:00,
2013-06-16 07:36:00,64.0,61.3,29.91,WSW,242,0.0,1.0,91,0.00,,---,0.01,63.00,VWS V14.00,2013-06-16 11:36:00,
2013-06-16 07:41:00,64.2,61.5,29.91,SSW,207,0.0,5.0,91,0.00,,---,0.01,86.00,VWS V14.00,2013-06-16 11:41:00,
2013-06-16 07:46:00,64.7,62.0,29.91,West,263,0.0,5.0,91,0.00,,---,0.01,141.00,VWS V14.00,2013-06-16 11:46:00,
2013-06-16 07:51:00,65.2,62.2,29.91,West,261,0.0,5.0,90,0.00,,---,0.01,153.00,VWS V14.00,2013-06-16 11:51:00,
2013-06-16 07:56:00,65.7,62.4,29.91,SW,227,0.0,5.0,89,0.00,,---,0.01,155.00,VWS V14.00,2013-06-16 11:56:00,
2013-06-16 08:00:00,63.5,61.4,29.91,ENE,57,0.0,0.0,93,0.00,,---,0.01,46.00,VWS V14.00,2013-06-16 12:00:00,
2013-06-16 08:01:00,66.2,62.9,29.91,South,175,0.0,0.0,89,0.00,,---,0.01,193.00,VWS V14.00,2013-06-16 12:01:00,
2013-06-16 08:06:00,66.6,62.6,29.91,SE,134,0.0,2.0,87,0.00,,---,0.01,142.00,VWS V14.00,2013-06-16 12:06:00,
2013-06-16 08:11:00,67.0,63.0,29.92,West,269,5.0,7.0,87,0.00,,---,0.01,118.00,VWS V14.00,2013-06-16 12:11:00,
2013-06-16 08:16:00,67.2,63.2,29.92,West,267,3.0,7.0,87,0.00,,---,0.01,141.00,VWS V14.00,2013-06-16 12:16:00,
2013-06-16 08:21:00,67.3,63.0,29.93,SW,232,0.0,7.0,86,0.00,,---,0.01,144.00,VWS V14.00,2013-06-16 12:21:00,
2013-06-16 08:26:00,67.4,62.7,29.93,West,260,2.0,7.0,85,0.00,,---,0.01,149.00,VWS V14.00,2013-06-16 12:26:00,
2013-06-16 08:30:00,63.9,60.9,29.91,WSW,242,0.0,5.0,90,0.00,,---,0.01,49.00,VWS V14.00,2013-06-16 12:30:00,
2013-06-16 08:32:00,67.6,62.9,29.93,West,279,1.0,7.0,85,0.00,,---,0.01,153.00,VWS V14.00,2013-06-16 12:32:00,
2013-06-16 08:37:00,67.7,63.0,29.93,West,260,1.0,7.0,85,0.00,,---,0.01,118.00,VWS V14.00,2013-06-16 12:37:00,
2013-06-16 08:42:00,67.7,63.0,29.94,West,271,4.0,7.0,85,0.00,,---,0.01,100.00,VWS V14.00,2013-06-16 12:42:00,
2013-06-16 08:47:00,67.7,63.0,29.94,WSW,258,1.0,8.0,85,0.00,,---,0.01,93.00,VWS V14.00,2013-06-16 12:47:00,
2013-06-16 08:52:00,67.6,63.3,29.94,West,267,3.0,8.0,86,0.00,,---,0.01,83.00,VWS V14.00,2013-06-16 12:52:00,
2013-06-16 08:57:00,67.4,63.4,29.94,South,188,2.0,8.0,87,0.00,,---,0.01,58.00,VWS V14.00,2013-06-16 12:57:00,
2013-06-16 09:00:00,66.1,62.5,29.91,South,175,0.0,5.0,88,0.00,,---,0.01,193.00,VWS V14.00,2013-06-16 13:00:00,
2013-06-16 09:02:00,67.1,63.1,29.94,West,262,0.0,2.0,87,0.19,,---,0.03,58.00,VWS V14.00,2013-06-16 13:02:00,
2013-06-16 09:07:00,66.8,63.8,29.93,West,259,1.0,3.0,90,0.12,,---,0.03,91.00,VWS V14.00,2013-06-16 13:07:00,
2013-06-16 09:12:00,66.5,63.8,29.93,West,264,2.0,5.0,91,0.06,,---,0.03,132.00,VWS V14.00,2013-06-16 13:12:00,
2013-06-16 09:17:00,66.3,63.9,29.93,West,265,3.0,7.0,92,0.04,,---,0.03,100.00,VWS V14.00,2013-06-16 13:17:00,
2013-06-16 09:22:00,66.0,63.9,29.92,West,267,1.0,7.0,93,0.00,,---,0.03,72.00,VWS V14.00,2013-06-16 13:22:00,
2013-06-16 09:27:00,65.9,63.8,29.91,SW,233,2.0,7.0,93,0.00,,---,0.03,69.00,VWS V14.00,2013-06-16 13:27:00,
2013-06-16 09:30:00,67.6,62.9,29.93,West,270,5.0,8.0,85,0.00,,---,0.01,171.00,VWS V14.00,2013-06-16 13:30:00,
2013-06-16 09:32:00,65.8,63.7,29.91,SW,233,0.0,1.0,93,0.00,,---,0.03,69.00,VWS V14.00,2013-06-16 13:32:00,
2013-06-16 09:37:00,65.8,63.7,29.91,SW,233,0.0,1.0,93,0.00,,---,0.03,98.00,VWS V14.00,2013-06-16 13:37:00,
2013-06-16 09:42:00,65.8,64.0,29.91,SW,234,0.0,2.0,94,0.00,,---,0.04,130.00,VWS V14.00,2013-06-16 13:42:00,
2013-06-16 09:47:00,65.8,64.3,29.91,WSW,245,0.0,3.0,95,0.00,,---,0.04,162.00,VWS V14.00,2013-06-16 13:47:00,
2013-06-16 09:52:00,65.9,64.4,29.91,SW,219,0.0,5.0,95,0.00,,---,0.04,160.00,VWS V14.00,2013-06-16 13:52:00,
2013-06-16 09:57:00,66.1,64.6,29.91,West,270,0.0,5.0,95,0.00,,---,0.04,156.00,VWS V14.00,2013-06-16 13:57:00,
2013-06-16 10:00:00,67.2,63.2,29.94,West,262,2.0,8.0,87,0.19,,---,0.02,54.00,VWS V14.00,2013-06-16 14:00:00,
2013-06-16 10:02:00,66.2,64.7,29.91,West,275,1.0,4.0,95,0.00,,---,0.04,151.00,VWS V14.00,2013-06-16 14:02:00,
2013-06-16 10:07:00,66.3,64.8,29.90,SW,225,0.0,4.0,95,0.00,,---,0.04,174.00,VWS V14.00,2013-06-16 14:07:00,
2013-06-16 10:12:00,66.5,65.0,29.91,West,262,0.0,4.0,95,0.00,,---,0.04,186.00,VWS V14.00,2013-06-16 14:12:00,
2013-06-16 10:17:00,66.7,65.2,29.91,WSW,239,0.0,4.0,95,0.00,,---,0.04,232.00,VWS V14.00,2013-06-16 14:17:00,
2013-06-16 10:22:00,66.9,65.1,29.90,SW,236,0.0,5.0,94,0.00,,---,0.04,355.00,VWS V14.00,2013-06-16 14:22:00,
2013-06-16 10:27:00,67.3,65.5,29.91,WSW,257,3.0,5.0,94,0.00,,---,0.04,366.00,VWS V14.00,2013-06-16 14:27:00,
2013-06-16 10:30:00,65.8,63.7,29.91,SW,233,0.0,7.0,93,0.00,,---,0.03,69.00,VWS V14.00,2013-06-16 14:30:00,
2013-06-16 10:32:00,67.8,66.3,29.91,South,171,0.0,5.0,95,0.00,,---,0.04,413.00,VWS V14.00,2013-06-16 14:32:00,
2013-06-16 10:37:00,68.2,65.8,29.90,WSW,238,3.0,7.0,92,0.00,,---,0.04,272.00,VWS V14.00,2013-06-16 14:37:00,
2013-06-16 10:42:00,68.4,65.7,29.90,WSW,237,0.0,7.0,91,0.00,,---,0.04,269.00,VWS V14.00,2013-06-16 14:42:00,
2013-06-16 10:47:00,68.5,66.1,29.90,West,259,3.0,7.0,92,0.00,,---,0.04,234.00,VWS V14.00,2013-06-16 14:47:00,
2013-06-16 10:52:00,68.6,65.9,29.90,SSW,205,0.0,7.0,91,0.00,,---,0.04,218.00,VWS V14.00,2013-06-16 14:52:00,
2013-06-16 10:57:00,68.6,65.6,29.90,SW,226,1.0,11.0,90,0.00,,---,0.04,223.00,VWS V14.00,2013-06-16 14:57:00,
2013-06-16 11:00:00,66.1,64.6,29.91,SW,233,2.0,5.0,95,0.00,,---,0.04,151.00,VWS V14.00,2013-06-16 15:00:00,
2013-06-16 11:02:00,68.7,65.7,29.91,South,188,4.0,6.0,90,0.00,,---,0.04,348.00,VWS V14.00,2013-06-16 15:02:00,
2013-06-16 11:07:00,68.9,65.8,29.91,West,271,2.0,6.0,90,0.00,,---,0.04,360.00,VWS V14.00,2013-06-16 15:07:00,
2013-06-16 11:12:00,69.2,66.5,29.91,WSW,242,0.0,6.0,91,0.00,,---,0.04,468.00,VWS V14.00,2013-06-16 15:12:00,
2013-06-16 11:17:00,69.5,66.8,29.91,WSW,253,8.0,10.0,91,0.00,,---,0.04,548.00,VWS V14.00,2013-06-16 15:17:00,
2013-06-16 11:22:00,70.1,67.0,29.92,SW,223,0.0,12.0,90,0.00,,---,0.04,359.00,VWS V14.00,2013-06-16 15:22:00,
2013-06-16 11:27:00,70.3,66.9,29.91,West,265,5.0,12.0,89,0.00,,---,0.04,315.00,VWS V14.00,2013-06-16 15:27:00,
2013-06-16 11:30:00,67.7,66.2,29.91,West,260,0.0,5.0,95,0.00,,---,0.04,399.00,VWS V14.00,2013-06-16 15:30:00,
2013-06-16 11:32:00,70.2,66.5,29.91,WSW,249,1.0,2.0,88,0.00,,---,0.04,207.00,VWS V14.00,2013-06-16 15:32:00,
2013-06-16 11:37:00,70.0,66.6,29.91,SSE,163,6.0,6.0,89,0.00,,---,0.04,151.00,VWS V14.00,2013-06-16 15:37:00,
2013-06-16 11:42:00,69.8,66.1,29.91,SW,216,0.0,8.0,88,0.00,,---,0.04,186.00,VWS V14.00,2013-06-16 15:42:00,
2013-06-16 11:47:00,69.8,66.7,29.91,WSW,248,2.0,8.0,90,0.00,,---,0.04,248.00,VWS V14.00,2013-06-16 15:47:00,
2013-06-16 11:52:00,69.8,66.7,29.91,WSW,245,1.0,8.0,90,0.00,,---,0.04,258.00,VWS V14.00,2013-06-16 15:52:00,
2013-06-16 11:57:00,69.7,66.6,29.91,West,279,1.0,8.0,90,0.00,,---,0.04,197.00,VWS V14.00,2013-06-16 15:57:00,
2013-06-16 12:00:00,68.7,66.0,29.91,South,188,1.0,11.0,91,0.00,,---,0.04,327.00,VWS V14.00,2013-06-16 16:00:00,
2013-06-16 12:02:00,69.8,66.7,29.91,SW,228,1.0,2.0,90,0.00,,---,0.04,128.00,VWS V14.00,2013-06-16 16:02:00,
2013-06-16 12:08:00,69.7,66.6,29.91,West,267,2.0,5.0,90,0.00,,---,0.04,100.00,VWS V14.00,2013-06-16 16:08:00,
2013-06-16 12:13:00,69.4,66.3,29.90,West,269,4.0,9.0,90,0.00,,---,0.04,72.00,VWS V14.00,2013-06-16 16:13:00,
2013-06-16 12:18:00,69.0,65.9,29.90,SW,225,1.0,9.0,90,0.00,,---,0.04,98.00,VWS V14.00,2013-06-16 16:18:00,
2013-06-16 12:23:00,68.8,66.1,29.90,South,173,1.0,9.0,91,0.00,,---,0.04,137.00,VWS V14.00,2013-06-16 16:23:00,
2013-06-16 12:28:00,68.8,66.4,29.89,SW,219,0.0,9.0,92,0.00,,---,0.05,202.00,VWS V14.00,2013-06-16 16:28:00,
2013-06-16 12:30:00,70.3,66.6,29.92,WSW,247,0.0,12.0,88,0.00,,---,0.04,211.00,VWS V14.00,2013-06-16 16:30:00,
2013-06-16 12:33:00,68.8,66.4,29.89,SE,140,0.0,5.0,92,0.00,,---,0.05,176.00,VWS V14.00,2013-06-16 16:33:00,
2013-06-16 12:38:00,68.9,66.5,29.89,SSE,159,1.0,5.0,92,0.00,,---,0.05,153.00,VWS V14.00,2013-06-16 16:38:00,
2013-06-16 12:43:00,69.0,66.6,29.89,SSE,163,2.0,5.0,92,0.00,,---,0.05,156.00,VWS V14.00,2013-06-16 16:43:00,
2013-06-16 12:48:00,69.0,66.6,29.89,South,175,0.0,5.0,92,0.00,,---,0.05,134.00,VWS V14.00,2013-06-16 16:48:00,
2013-06-16 12:53:00,69.1,66.7,29.90,SW,223,0.0,5.0,92,0.00,,---,0.05,148.00,VWS V14.00,2013-06-16 16:53:00,
2013-06-16 12:58:00,69.1,66.4,29.90,SW,230,2.0,5.0,91,0.00,,---,0.05,199.00,VWS V14.00,2013-06-16 16:58:00,
2013-06-16 13:00:00,69.8,66.7,29.91,WSW,242,2.0,8.0,90,0.00,,---,0.04,142.00,VWS V14.00,2013-06-16 17:00:00,
2013-06-16 13:03:00,69.3,66.9,29.89,SSE,153,0.0,1.0,92,0.00,,---,0.05,288.00,VWS V14.00,2013-06-16 17:03:00,
2013-06-16 13:08:00,69.5,67.1,29.89,SE,127,2.0,6.0,92,0.00,,---,0.05,209.00,VWS V14.00,2013-06-16 17:08:00,
2013-06-16 13:13:00,69.7,66.6,29.90,WSW,244,1.0,9.0,90,0.00,,---,0.05,165.00,VWS V14.00,2013-06-16 17:13:00,
2013-06-16 13:18:00,69.7,66.6,29.90,SW,221,2.0,9.0,90,0.00,,---,0.05,128.00,VWS V14.00,2013-06-16 17:18:00,
2013-06-16 13:23:00,69.8,66.4,29.90,SW,227,2.0,11.0,89,0.00,,---,0.05,193.00,VWS V14.00,2013-06-16 17:23:00,
2013-06-16 13:28:00,69.9,66.5,29.90,SW,224,0.0,11.0,89,0.00,,---,0.05,190.00,VWS V14.00,2013-06-16 17:28:00,
2013-06-16 13:30:00,68.8,66.4,29.89,SSE,167,2.0,9.0,92,0.00,,---,0.05,183.00,VWS V14.00,2013-06-16 17:30:00,
2013-06-16 13:33:00,70.1,67.0,29.90,West,261,0.0,5.0,90,0.00,,---,0.05,290.00,VWS V14.00,2013-06-16 17:33:00,
2013-06-16 13:38:00,70.4,67.0,29.90,WSW,247,1.0,5.0,89,0.00,,---,0.05,237.00,VWS V14.00,2013-06-16 17:38:00,
2013-06-16 13:43:00,70.6,66.9,29.90,South,169,5.0,5.0,88,0.00,,---,0.05,125.00,VWS V14.00,2013-06-16 17:43:00,
2013-06-16 13:48:00,70.5,66.4,29.89,West,266,3.0,18.0,87,0.00,,---,0.05,158.00,VWS V14.00,2013-06-16 17:48:00,
2013-06-16 13:53:00,70.5,66.1,29.89,WSW,252,3.0,18.0,86,0.00,,---,0.05,130.00,VWS V14.00,2013-06-16 17:53:00,
2013-06-16 13:58:00,70.4,66.3,29.90,WSW,258,3.0,18.0,87,0.00,,---,0.05,134.00,VWS V14.00,2013-06-16 17:58:00,
2013-06-16 14:00:00,69.2,66.8,29.89,SSE,153,1.0,6.0,92,0.00,,---,0.05,274.00,VWS V14.00,2013-06-16 18:00:00,
2013-06-16 14:03:00,70.6,66.2,29.89,WSW,250,1.0,6.0,86,0.00,,---,0.05,148.00,VWS V14.00,2013-06-16 18:03:00,
2013-06-16 14:08:00,70.7,66.3,29.89,South,186,5.0,11.0,86,0.00,,---,0.05,345.00,VWS V14.00,2013-06-16 18:08:00,
2013-06-16 14:13:00,71.1,66.4,29.89,West,267,2.0,11.0,85,0.00,,---,0.05,364.00,VWS V14.00,2013-06-16 18:13:00,
2013-06-16 14:18:00,71.7,66.9,29.89,West,272,9.0,12.0,85,0.00,,---,0.05,432.00,VWS V14.00,2013-06-16 18:18:00,
2013-06-16 14:23:00,72.3,67.2,29.89,West,261,5.0,13.0,84,0.00,,---,0.05,279.00,VWS V14.00,2013-06-16 18:23:00,
2013-06-16 14:28:00,72.5,66.7,29.89,West,276,4.0,13.0,82,0.00,,---,0.05,221.00,VWS V14.00,2013-06-16 18:28:00,
2013-06-16 14:30:00,69.9,66.8,29.90,WSW,254,2.0,11.0,90,0.00,,---,0.05,255.00,VWS V14.00,2013-06-16 18:30:00,
2013-06-16 14:33:00,72.6,67.5,29.88,West,259,3.0,6.0,84,0.00,,---,0.05,287.00,VWS V14.00,2013-06-16 18:33:00,
2013-06-16 14:38:00,72.9,67.4,29.88,WSW,250,0.0,8.0,83,0.00,,---,0.05,450.00,VWS V14.00,2013-06-16 18:38:00,
2013-06-16 14:43:00,73.4,67.6,29.89,West,260,0.0,11.0,82,0.00,,---,0.05,309.00,VWS V14.00,2013-06-16 18:43:00,
2013-06-16 14:48:00,73.9,68.1,29.89,SSW,209,5.0,11.0,82,0.00,,---,0.05,503.00,VWS V14.00,2013-06-16 18:48:00,
2013-06-16 14:53:00,74.4,67.1,29.89,WSW,249,5.0,19.0,78,0.00,,---,0.05,439.00,VWS V14.00,2013-06-16 18:53:00,
2013-06-16 14:58:00,74.4,67.5,29.89,WSW,252,2.0,19.0,79,0.00,,---,0.05,318.00,VWS V14.00,2013-06-16 18:58:00,
2013-06-16 15:00:00,70.5,66.1,29.89,West,278,6.0,18.0,86,0.00,,---,0.05,104.00,VWS V14.00,2013-06-16 19:00:00,
2013-06-16 15:03:00,74.3,67.4,29.89,WSW,247,7.0,13.0,79,0.00,,---,0.05,424.00,VWS V14.00,2013-06-16 19:03:00,
2013-06-16 15:08:00,74.4,67.5,29.89,West,281,5.0,14.0,79,0.00,,---,0.05,396.00,VWS V14.00,2013-06-16 19:08:00,
2013-06-16 15:14:00,74.8,67.9,29.88,WSW,244,2.0,14.0,79,0.00,,---,0.05,513.00,VWS V14.00,2013-06-16 19:14:00,
2013-06-16 15:19:00,75.0,67.3,29.88,West,264,4.0,14.0,77,0.00,,---,0.05,295.00,VWS V14.00,2013-06-16 19:19:00,
2013-06-16 15:24:00,75.3,68.3,29.89,SW,235,4.0,14.0,79,0.00,,---,0.05,1092.00,VWS V14.00,2013-06-16 19:24:00,
2013-06-16 15:29:00,75.8,67.3,29.89,WSW,254,5.0,18.0,75,0.00,,---,0.05,360.00,VWS V14.00,2013-06-16 19:29:00,
2013-06-16 15:30:00,72.6,67.2,29.88,WSW,248,5.0,13.0,83,0.00,,---,0.05,232.00,VWS V14.00,2013-06-16 19:30:00,
2013-06-16 15:34:00,75.9,67.8,29.89,West,259,7.0,13.0,76,0.00,,---,0.05,1078.00,VWS V14.00,2013-06-16 19:34:00,
2013-06-16 15:39:00,76.7,68.6,29.89,NW,311,8.0,13.0,76,0.00,,---,0.05,969.00,VWS V14.00,2013-06-16 19:39:00,
2013-06-16 15:44:00,77.3,68.0,29.89,WSW,254,11.0,13.0,73,0.00,,---,0.05,353.00,VWS V14.00,2013-06-16 19:44:00,
2013-06-16 15:49:00,77.2,67.9,29.89,WSW,247,7.0,19.0,73,0.00,,---,0.05,680.00,VWS V14.00,2013-06-16 19:49:00,
2013-06-16 15:54:00,76.7,67.0,29.89,West,260,6.0,19.0,72,0.00,,---,0.05,302.00,VWS V14.00,2013-06-16 19:54:00,
2013-06-16 15:59:00,76.4,67.9,29.89,WSW,256,8.0,20.0,75,0.00,,---,0.05,584.00,VWS V14.00,2013-06-16 19:59:00,
2013-06-16 16:00:00,74.3,67.4,29.89,SW,234,11.0,19.0,79,0.00,,---,0.05,304.00,VWS V14.00,2013-06-16 20:00:00,
2013-06-16 16:04:00,76.2,66.5,29.89,West,277,6.0,11.0,72,0.00,,---,0.05,285.00,VWS V14.00,2013-06-16 20:04:00,
2013-06-16 16:09:00,75.6,66.7,29.89,SW,236,3.0,15.0,74,0.00,,---,0.05,227.00,VWS V14.00,2013-06-16 20:09:00,
2013-06-16 16:14:00,75.1,66.6,29.89,West,263,6.0,15.0,75,0.00,,---,0.05,128.00,VWS V14.00,2013-06-16 20:14:00,
2013-06-16 16:19:00,74.6,66.2,29.89,SW,228,3.0,15.0,75,0.00,,---,0.05,155.00,VWS V14.00,2013-06-16 20:19:00,
2013-06-16 16:24:00,74.2,65.8,29.90,West,267,5.0,15.0,75,0.00,,---,0.05,153.00,VWS V14.00,2013-06-16 20:24:00,
2013-06-16 16:29:00,73.9,66.2,29.90,West,265,0.0,15.0,77,0.00,,---,0.05,93.00,VWS V14.00,2013-06-16 20:29:00,
2013-06-16 16:30:00,75.8,67.7,29.88,West,259,6.0,18.0,76,0.00,,---,0.05,459.00,VWS V14.00,2013-06-16 20:30:00,
2013-06-16 16:34:00,73.7,65.7,29.90,West,269,3.0,7.0,76,0.00,,---,0.05,81.00,VWS V14.00,2013-06-16 20:34:00,
2013-06-16 16:39:00,73.4,65.8,29.90,ESE,120,6.0,8.0,77,0.00,,---,0.05,84.00,VWS V14.00,2013-06-16 20:39:00,
2013-06-16 16:44:00,73.1,65.5,29.90,WSW,258,5.0,10.0,77,0.00,,---,0.05,76.00,VWS V14.00,2013-06-16 20:44:00,
2013-06-16 16:49:00,72.8,65.2,29.90,West,279,2.0,10.0,77,0.00,,---,0.05,72.00,VWS V14.00,2013-06-16 20:49:00,
2013-06-16 16:54:00,72.7,65.4,29.90,WSW,255,1.0,10.0,78,0.00,,---,0.05,58.00,VWS V14.00,2013-06-16 20:54:00,
2013-06-16 16:59:00,72.5,65.3,29.90,West,267,0.0,10.0,78,0.00,,---,0.05,76.00,VWS V14.00,2013-06-16 20:59:00,
2013-06-16 17:00:00,76.4,66.7,29.89,West,281,5.0,20.0,72,0.00,,---,0.05,301.00,VWS V14.00,2013-06-16 21:00:00,
2013-06-16 17:04:00,72.4,65.5,29.90,West,259,4.0,12.0,79,0.00,,---,0.05,63.00,VWS V14.00,2013-06-16 21:04:00,
2013-06-16 17:09:00,72.4,65.5,29.90,West,263,2.0,12.0,79,0.00,,---,0.05,79.00,VWS V14.00,2013-06-16 21:09:00,
2013-06-16 17:14:00,72.4,65.5,29.90,WSW,246,2.0,12.0,79,0.00,,---,0.05,81.00,VWS V14.00,2013-06-16 21:14:00,
2013-06-16 17:19:00,72.4,65.9,29.90,West,264,0.0,12.0,80,0.00,,---,0.05,90.00,VWS V14.00,2013-06-16 21:19:00,
2013-06-16 17:24:00,72.4,65.9,29.90,WSW,246,0.0,12.0,80,0.00,,---,0.05,130.00,VWS V14.00,2013-06-16 21:24:00,
2013-06-16 17:29:00,72.4,65.9,29.90,WSW,246,7.0,12.0,80,0.00,,---,0.05,88.00,VWS V14.00,2013-06-16 21:29:00,
2013-06-16 17:30:00,73.8,66.2,29.90,West,265,1.0,15.0,77,0.00,,---,0.05,79.00,VWS V14.00,2013-06-16 21:30:00,
2013-06-16 17:34:00,72.4,65.9,29.90,West,260,1.0,8.0,80,0.00,,---,0.05,67.00,VWS V14.00,2013-06-16 21:34:00,
2013-06-16 17:39:00,72.3,65.8,29.90,West,263,3.0,8.0,80,0.00,,---,0.05,76.00,VWS V14.00,2013-06-16 21:39:00,
2013-06-16 17:44:00,72.2,66.1,29.90,West,275,4.0,8.0,81,0.00,,---,0.05,46.00,VWS V14.00,2013-06-16 21:44:00,
2013-06-16 17:49:00,72.1,65.9,29.90,WSW,242,6.0,10.0,81,0.00,,---,0.05,62.00,VWS V14.00,2013-06-16 21:49:00,
2013-06-16 17:54:00,72.0,65.9,29.90,West,263,1.0,10.0,81,0.00,,---,0.05,60.00,VWS V14.00,2013-06-16 21:54:00,
2013-06-16 17:59:00,72.0,66.2,29.90,West,263,0.0,10.0,82,0.00,,---,0.05,49.00,VWS V14.00,2013-06-16 21:59:00,
2013-06-16 18:00:00,72.5,65.6,29.90,West,260,2.0,10.0,79,0.00,,---,0.05,74.00,VWS V14.00,2013-06-16 22:00:00,
2013-06-16 18:05:00,71.9,66.1,29.89,WSW,258,2.0,3.0,82,0.00,,---,0.05,77.00,VWS V14.00,2013-06-16 22:05:00,
2013-06-16 18:10:00,71.9,66.1,29.90,West,259,3.0,4.0,82,0.00,,---,0.05,165.00,VWS V14.00,2013-06-16 22:10:00,
2013-06-16 18:15:00,72.2,66.8,29.89,SSW,207,0.0,4.0,83,0.00,,---,0.05,169.00,VWS V14.00,2013-06-16 22:15:00,
2013-06-16 18:20:00,72.4,66.9,29.89,WNW,290,0.0,5.0,83,0.00,,---,0.05,322.00,VWS V14.00,2013-06-16 22:20:00,
2013-06-16 18:25:00,72.9,67.1,29.89,WSW,257,0.0,5.0,82,0.00,,---,0.05,255.00,VWS V14.00,2013-06-16 22:25:00,
2013-06-16 18:30:00,73.3,67.1,29.89,SE,143,1.0,7.0,81,0.00,,---,0.05,167.00,VWS V14.00,2013-06-16 22:30:00,
2013-06-16 18:35:00,73.6,67.4,29.88,SSE,167,4.0,7.0,81,0.00,,---,0.05,134.00,VWS V14.00,2013-06-16 22:35:00,
2013-06-16 18:40:00,73.6,67.1,29.89,WSW,251,4.0,7.0,80,0.00,,---,0.05,113.00,VWS V14.00,2013-06-16 22:40:00,
2013-06-16 18:45:00,73.4,67.2,29.89,WSW,244,0.0,9.0,81,0.00,,---,0.05,97.00,VWS V14.00,2013-06-16 22:45:00,
2013-06-16 18:50:00,73.1,66.9,29.89,WSW,250,6.0,10.0,81,0.00,,---,0.05,83.00,VWS V14.00,2013-06-16 22:50:00,
2013-06-16 18:55:00,72.9,66.7,29.89,West,269,1.0,10.0,81,0.00,,---,0.05,142.00,VWS V14.00,2013-06-16 22:55:00,
2013-06-16 19:00:00,72.8,67.0,29.89,WNW,286,0.0,10.0,82,0.00,,---,0.05,109.00,VWS V14.00,2013-06-16 23:00:00,
2013-06-16 19:05:00,72.8,66.6,29.89,West,277,0.0,8.0,81,0.00,,---,0.05,90.00,VWS V14.00,2013-06-16 23:05:00,
2013-06-16 19:10:00,72.8,66.6,29.89,WSW,249,1.0,9.0,81,0.00,,---,0.05,90.00,VWS V14.00,2013-06-16 23:10:00,
2013-06-16 19:15:00,72.8,66.6,29.89,WSW,257,2.0,9.0,81,0.00,,---,0.05,90.00,VWS V14.00,2013-06-16 23:15:00,
2013-06-16 19:20:00,72.7,66.2,29.90,West,263,4.0,9.0,80,0.00,,---,0.05,74.00,VWS V14.00,2013-06-16 23:20:00,
2013-06-16 19:25:00,72.6,66.1,29.90,West,266,5.0,9.0,80,0.00,,---,0.05,77.00,VWS V14.00,2013-06-16 23:25:00,
2013-06-16 19:30:00,72.6,66.1,29.90,WSW,257,3.0,9.0,80,0.00,,---,0.05,67.00,VWS V14.00,2013-06-16 23:30:00,
2013-06-16 19:35:00,72.4,65.9,29.90,West,265,1.0,7.0,80,0.00,,---,0.05,37.00,VWS V14.00,2013-06-16 23:35:00,
2013-06-16 19:40:00,72.4,66.2,29.90,WSW,240,1.0,7.0,81,0.00,,---,0.05,39.00,VWS V14.00,2013-06-16 23:40:00,
2013-06-16 19:45:00,72.2,66.4,29.90,WSW,252,0.0,7.0,82,0.00,,---,0.05,32.00,VWS V14.00,2013-06-16 23:45:00,
2013-06-16 19:50:00,72.2,66.4,29.91,WSW,252,0.0,7.0,82,0.00,,---,0.05,32.00,VWS V14.00,2013-06-16 23:50:00,
2013-06-16 19:55:00,72.1,66.3,29.91,West,261,3.0,7.0,82,0.00,,---,0.05,30.00,VWS V14.00,2013-06-16 23:55:00,
2013-06-16 20:00:00,72.0,66.6,29.91,West,278,2.0,7.0,83,0.00,,---,0.05,32.00,VWS V14.00,2013-06-17 00:00:00,
2013-06-16 20:05:00,71.9,66.5,29.91,West,262,6.0,6.0,83,0.00,,---,0.05,25.00,VWS V14.00,2013-06-17 00:05:00,
2013-06-16 20:10:00,71.8,66.0,29.91,WSW,238,2.0,6.0,82,0.00,,---,0.05,18.00,VWS V14.00,2013-06-17 00:10:00,
2013-06-16 20:15:00,71.7,65.9,29.91,West,259,2.0,6.0,82,0.00,,---,0.05,19.00,VWS V14.00,2013-06-17 00:15:00,
2013-06-16 20:20:00,71.5,65.7,29.91,WSW,241,2.0,7.0,82,0.00,,---,0.05,11.00,VWS V14.00,2013-06-17 00:20:00,
2013-06-16 20:25:00,71.4,66.0,29.91,SW,215,0.0,7.0,83,0.00,,---,0.05,9.00,VWS V14.00,2013-06-17 00:25:00,
2013-06-16 20:30:00,71.3,65.9,29.91,West,259,0.0,7.0,83,0.00,,---,0.05,9.00,VWS V14.00,2013-06-17 00:30:00,
2013-06-16 20:36:00,71.1,65.7,29.91,WSW,246,3.0,3.0,83,0.00,,---,0.05,7.00,VWS V14.00,2013-06-17 00:36:00,
2013-06-16 20:41:00,70.9,65.5,29.91,SW,234,1.0,7.0,83,0.00,,---,0.05,5.00,VWS V14.00,2013-06-17 00:41:00,
2013-06-16 20:46:00,70.8,65.7,29.91,WSW,237,0.0,7.0,84,0.00,,---,0.05,0.00,VWS V14.00,2013-06-17 00:46:00,
2013-06-16 20:51:00,70.6,65.5,29.91,WSW,252,0.0,7.0,84,0.00,,---,0.05,0.00,VWS V14.00,2013-06-17 00:51:00,
2013-06-16 20:56:00,70.4,65.3,29.90,South,178,0.0,7.0,84,0.00,,---,0.05,0.00,VWS V14.00,2013-06-17 00:56:00,
2013-06-16 21:00:00,72.0,66.2,29.90,West,278,0.0,7.0,82,0.00,,---,0.05,30.00,VWS V14.00,2013-06-17 01:00:00,
2013-06-16 21:01:00,70.2,65.5,29.90,South,182,0.0,7.0,85,0.00,,---,0.05,0.00,VWS V14.00,2013-06-17 01:01:00,
2013-06-16 21:06:00,70.0,65.3,29.90,SSW,202,0.0,3.0,85,0.00,,---,0.05,0.00,VWS V14.00,2013-06-17 01:06:00,
2013-06-16 21:11:00,69.8,65.4,29.90,SSW,205,0.0,3.0,86,0.00,,---,0.05,0.00,VWS V14.00,2013-06-17 01:11:00,
2013-06-16 21:16:00,69.7,65.3,29.91,SSW,212,0.0,3.0,86,0.00,,---,0.05,0.00,VWS V14.00,2013-06-17 01:16:00,
2013-06-16 21:21:00,69.6,65.6,29.91,SSW,194,0.0,3.0,87,0.00,,---,0.05,0.00,VWS V14.00,2013-06-17 01:21:00,
2013-06-16 21:26:00,69.4,65.4,29.91,SSW,207,0.0,3.0,87,0.00,,---,0.05,0.00,VWS V14.00,2013-06-17 01:26:00,
2013-06-16 21:30:00,71.3,65.9,29.91,West,259,0.0,7.0,83,0.00,,---,0.05,9.00,VWS V14.00,2013-06-17 01:30:00,
2013-06-16 21:31:00,69.3,65.3,29.91,SSW,208,0.0,3.0,87,0.00,,---,0.05,0.00,VWS V14.00,2013-06-17 01:31:00,
2013-06-16 21:36:00,69.2,65.2,29.91,SSW,208,1.0,1.0,87,0.00,,---,0.05,0.00,VWS V14.00,2013-06-17 01:36:00,
2013-06-16 21:41:00,69.0,65.0,29.92,SE,144,0.0,4.0,87,0.00,,---,0.05,0.00,VWS V14.00,2013-06-17 01:41:00,
2013-06-16 21:46:00,68.9,65.2,29.92,SW,214,1.0,6.0,88,0.00,,---,0.05,0.00,VWS V14.00,2013-06-17 01:46:00,
2013-06-16 21:51:00,68.8,65.1,29.92,SW,214,0.0,6.0,88,0.00,,---,0.05,0.00,VWS V14.00,2013-06-17 01:51:00,
2013-06-16 21:56:00,68.7,65.0,29.92,SW,214,0.0,6.0,88,0.00,,---,0.05,0.00,VWS V14.00,2013-06-17 01:56:00,
2013-06-16 22:00:00,70.2,65.5,29.90,South,182,0.0,7.0,85,0.00,,---,0.05,0.00,VWS V14.00,2013-06-17 02:00:00,
2013-06-16 22:01:00,68.6,64.9,29.92,SW,214,0.0,6.0,88,0.00,,---,0.05,0.00,VWS V14.00,2013-06-17 02:01:00,
2013-06-16 22:06:00,68.4,64.7,29.92,SW,214,0.0,0.0,88,0.00,,---,0.05,0.00,VWS V14.00,2013-06-17 02:06:00,
2013-06-16 22:11:00,68.2,64.5,29.92,SW,214,0.0,0.0,88,0.00,,---,0.05,0.00,VWS V14.00,2013-06-17 02:11:00,
2013-06-16 22:16:00,68.0,64.3,29.92,SSE,167,0.0,2.0,88,0.00,,---,0.05,0.00,VWS V14.00,2013-06-17 02:16:00,
2013-06-16 22:21:00,67.8,64.4,29.92,South,169,0.0,2.0,89,0.00,,---,0.05,0.00,VWS V14.00,2013-06-17 02:21:00,
2013-06-16 22:26:00,67.7,64.3,29.92,South,172,0.0,2.0,89,0.00,,---,0.05,0.00,VWS V14.00,2013-06-17 02:26:00,
2013-06-16 22:30:00,69.3,65.3,29.91,SSW,208,0.0,3.0,87,0.00,,---,0.05,0.00,VWS V14.00,2013-06-17 02:30:00,
2013-06-16 22:31:00,67.7,64.3,29.92,South,172,0.0,2.0,89,0.00,,---,0.05,0.00,VWS V14.00,2013-06-17 02:31:00,
2013-06-16 22:36:00,67.7,64.3,29.92,South,169,0.0,2.0,89,0.00,,---,0.05,0.00,VWS V14.00,2013-06-17 02:36:00,
2013-06-16 22:41:00,67.7,64.3,29.92,South,169,0.0,2.0,89,0.00,,---,0.05,0.00,VWS V14.00,2013-06-17 02:41:00,
2013-06-16 22:46:00,67.7,64.3,29.92,South,169,0.0,2.0,89,0.00,,---,0.05,0.00,VWS V14.00,2013-06-17 02:46:00,
2013-06-16 22:51:00,67.6,64.2,29.92,South,169,0.0,2.0,89,0.00,,---,0.05,0.00,VWS V14.00,2013-06-17 02:51:00,
2013-06-16 22:56:00,67.6,64.2,29.92,South,169,0.0,2.0,89,0.00,,---,0.05,0.00,VWS V14.00,2013-06-17 02:56:00,
2013-06-16 23:00:00,68.5,64.8,29.92,SW,214,0.0,6.0,88,0.00,,---,0.05,0.00,VWS V14.00,2013-06-17 03:00:00,
2013-06-16 23:01:00,67.5,64.2,29.92,South,171,0.0,2.0,89,0.00,,---,0.05,0.00,VWS V14.00,2013-06-17 03:01:00,
2013-06-16 23:06:00,67.4,64.1,29.92,South,171,0.0,1.0,89,0.00,,---,0.05,0.00,VWS V14.00,2013-06-17 03:06:00,
2013-06-16 23:11:00,67.3,64.0,29.92,WSW,254,0.0,4.0,89,0.00,,---,0.05,0.00,VWS V14.00,2013-06-17 03:11:00,
2013-06-16 23:16:00,67.2,63.8,29.91,West,264,0.0,4.0,89,0.00,,---,0.05,0.00,VWS V14.00,2013-06-17 03:16:00,
2013-06-16 23:21:00,67.2,64.2,29.92,West,264,0.0,4.0,90,0.00,,---,0.05,0.00,VWS V14.00,2013-06-17 03:21:00,
2013-06-16 23:26:00,67.2,64.2,29.92,West,264,0.0,4.0,90,0.00,,---,0.05,0.00,VWS V14.00,2013-06-17 03:26:00,
2013-06-16 23:30:00,67.7,64.3,29.92,South,172,0.0,2.0,89,0.00,,---,0.05,0.00,VWS V14.00,2013-06-17 03:30:00,
2013-06-16 23:31:00,67.1,64.1,29.91,West,264,0.0,4.0,90,0.00,,---,0.05,0.00,VWS V14.00,2013-06-17 03:31:00,
2013-06-16 23:36:00,67.0,64.0,29.92,West,264,0.0,0.0,90,0.00,,---,0.05,0.00,VWS V14.00,2013-06-17 03:36:00,
2013-06-16 23:41:00,67.0,64.0,29.91,West,264,0.0,0.0,90,0.00,,---,0.05,0.00,VWS V14.00,2013-06-17 03:41:00,
2013-06-16 23:46:00,66.9,63.9,29.91,West,264,0.0,0.0,90,0.00,,---,0.05,0.00,VWS V14.00,2013-06-17 03:46:00,
2013-06-16 23:51:00,66.8,63.8,29.91,West,264,0.0,0.0,90,0.00,,---,0.05,0.00,VWS V14.00,2013-06-17 03:51:00,
2013-06-16 23:56:00,66.7,63.7,29.92,West,264,0.0,0.0,90,0.00,,---,0.05,0.00,VWS V14.00,2013-06-17 03:56:00,